createdAt,value
2018-04-27T00:00:54.596Z,0
2018-04-27T00:02:09.472Z,0
2018-04-27T00:03:23.167Z,0
2018-04-27T00:04:37.515Z,0
2018-04-27T00:05:52.284Z,0
2018-04-27T00:12:04.555Z,0
2018-04-27T00:13:18.795Z,0
2018-04-27T00:14:33.508Z,0
2018-04-27T00:15:47.956Z,0
2018-04-27T00:17:02.677Z,0
2018-04-27T00:18:16.884Z,0
2018-04-27T00:19:31.623Z,0
2018-04-27T00:20:46.091Z,0
2018-04-27T00:21:59.881Z,0
2018-04-27T00:23:13.549Z,0
2018-04-27T00:24:28.008Z,0
2018-04-27T00:25:43.031Z,0
2018-04-27T00:26:57.548Z,0
2018-04-27T00:28:11.733Z,0
2018-04-27T00:29:25.948Z,0
2018-04-27T00:30:40.657Z,0
2018-04-27T00:31:55.085Z,0
2018-04-27T00:33:09.827Z,0
2018-04-27T00:34:24.200Z,0
2018-04-27T00:35:39.412Z,0
2018-04-27T00:36:53.395Z,0
2018-04-27T00:38:08.109Z,0
2018-04-27T00:39:22.585Z,0
2018-04-27T00:40:36.954Z,0
2018-04-27T00:41:51.171Z,0
2018-04-27T00:43:05.804Z,0
2018-04-27T00:44:20.224Z,0
2018-04-27T00:45:34.429Z,0
2018-04-27T00:46:49.217Z,0
2018-04-27T00:48:04.161Z,0
2018-04-27T00:49:18.568Z,0
2018-04-27T00:50:33.050Z,0
2018-04-27T00:51:47.544Z,0
2018-04-27T00:53:02.510Z,0
2018-04-27T00:54:16.693Z,0
2018-04-27T00:55:31.371Z,0
2018-04-27T00:56:46.355Z,0
2018-04-27T00:58:01.003Z,0
2018-04-27T00:59:15.499Z,0
2018-04-27T01:00:30.554Z,0
2018-04-27T01:01:44.195Z,0
2018-04-27T01:02:58.956Z,0
2018-04-27T01:04:13.176Z,0
2018-04-27T01:05:27.366Z,0
2018-04-27T01:06:42.065Z,0
2018-04-27T01:07:56.795Z,0
2018-04-27T01:09:11.004Z,0
2018-04-27T01:10:25.625Z,0
2018-04-27T01:11:40.085Z,0
2018-04-27T01:12:54.780Z,0
2018-04-27T01:14:09.531Z,0
2018-04-27T01:15:24.480Z,0
2018-04-27T01:16:38.408Z,0
2018-04-27T01:17:52.706Z,0
2018-04-27T01:19:06.799Z,0
2018-04-27T01:20:20.728Z,0
2018-04-27T01:21:34.683Z,0
2018-04-27T01:22:49.163Z,0
2018-04-27T01:24:03.859Z,0
2018-04-27T01:25:17.766Z,0
2018-04-27T01:26:32.091Z,0
2018-04-27T01:27:46.806Z,0
2018-04-27T01:29:00.873Z,0
2018-04-27T01:30:14.568Z,0
2018-04-27T01:31:29.019Z,0
2018-04-27T01:32:42.706Z,0
2018-04-27T01:33:57.048Z,0
2018-04-27T01:35:11.606Z,0
2018-04-27T01:36:26.083Z,0
2018-04-27T01:37:40.551Z,0
2018-04-27T01:38:55.280Z,0
2018-04-27T01:40:09.669Z,0
2018-04-27T01:41:24.151Z,0
2018-04-27T01:42:38.610Z,0
2018-04-27T01:43:52.863Z,0
2018-04-27T01:45:07.648Z,0
2018-04-27T01:46:21.837Z,0
2018-04-27T01:47:36.566Z,0
2018-04-27T01:48:51.032Z,0
2018-04-27T01:50:05.183Z,0
2018-04-27T01:51:19.904Z,0
2018-04-27T01:52:34.349Z,0
2018-04-27T01:53:49.546Z,0
2018-04-27T01:55:04.061Z,0
2018-04-27T01:56:18.713Z,0
2018-04-27T01:57:33.887Z,0
2018-04-27T01:58:48.622Z,0
2018-04-27T02:00:03.637Z,0
2018-04-27T02:01:17.808Z,0
2018-04-27T02:02:32.238Z,0
2018-04-27T02:03:46.901Z,0
2018-04-27T02:05:01.574Z,0
2018-04-27T02:06:16.023Z,0
2018-04-27T02:07:30.716Z,0
2018-04-27T02:08:44.621Z,0
2018-04-27T02:09:58.288Z,0
2018-04-27T02:11:12.488Z,0
2018-04-27T02:12:26.921Z,0
2018-04-27T02:13:40.849Z,0
2018-04-27T02:14:55.296Z,0
2018-04-27T02:16:09.973Z,0
2018-04-27T02:17:24.149Z,0
2018-04-27T02:18:37.830Z,0
2018-04-27T02:19:52.508Z,0
2018-04-27T02:21:06.701Z,0
2018-04-27T02:22:21.066Z,0
2018-04-27T02:23:35.503Z,0
2018-04-27T02:24:50.230Z,0
2018-04-27T02:26:04.442Z,0
2018-04-27T02:27:18.209Z,0
2018-04-27T02:28:32.669Z,0
2018-04-27T02:29:47.311Z,0
2018-04-27T02:31:01.021Z,0
2018-04-27T02:32:15.335Z,0
2018-04-27T02:33:28.755Z,0
2018-04-27T02:34:42.690Z,0
2018-04-27T02:35:57.429Z,0
2018-04-27T02:37:11.919Z,0
2018-04-27T02:38:26.408Z,0
2018-04-27T02:39:40.877Z,0
2018-04-27T02:40:55.801Z,0
2018-04-27T02:42:09.661Z,0
2018-04-27T02:43:23.912Z,0
2018-04-27T02:44:37.909Z,0
2018-04-27T02:45:52.333Z,0
2018-04-27T02:47:06.982Z,0
2018-04-27T02:48:21.707Z,0
2018-04-27T02:49:36.413Z,0
2018-04-27T02:50:51.138Z,0
2018-04-27T02:52:05.373Z,0
2018-04-27T02:53:19.577Z,0
2018-04-27T02:54:33.903Z,0
2018-04-27T02:55:48.370Z,0
2018-04-27T02:57:02.600Z,0
2018-04-27T02:58:17.230Z,0
2018-04-27T02:59:31.926Z,0
2018-04-27T03:00:45.915Z,0
2018-04-27T03:02:00.308Z,0
2018-04-27T03:03:14.697Z,0
2018-04-27T03:04:28.940Z,0
2018-04-27T03:05:43.406Z,0
2018-04-27T03:06:58.027Z,0
2018-04-27T03:08:12.464Z,0
2018-04-27T03:09:26.389Z,0
2018-04-27T03:10:41.058Z,0
2018-04-27T03:11:55.003Z,0
2018-04-27T03:13:10.082Z,0
2018-04-27T03:14:24.544Z,0
2018-04-27T03:15:39.005Z,0
2018-04-27T03:16:53.485Z,0
2018-04-27T03:18:07.925Z,0
2018-04-27T03:19:22.364Z,0
2018-04-27T03:20:36.551Z,0
2018-04-27T03:21:50.786Z,0
2018-04-27T03:23:04.986Z,0
2018-04-27T03:24:19.670Z,0
2018-04-27T03:25:34.044Z,0
2018-04-27T03:26:48.497Z,0
2018-04-27T03:28:03.258Z,0
2018-04-27T03:29:17.630Z,0
2018-04-27T03:30:31.365Z,0
2018-04-27T03:31:46.085Z,0
2018-04-27T03:33:00.578Z,0
2018-04-27T03:34:15.114Z,0
2018-04-27T03:35:29.645Z,4
2018-04-27T03:36:44.162Z,0
2018-04-27T03:37:58.371Z,0
2018-04-27T03:39:11.842Z,4
2018-04-27T03:40:26.064Z,4
2018-04-27T03:41:40.483Z,4
2018-04-27T03:42:54.177Z,8
2018-04-27T03:44:08.794Z,8
2018-04-27T03:45:23.065Z,8
2018-04-27T03:46:37.363Z,8
2018-04-27T03:47:52.059Z,12
2018-04-27T03:49:06.495Z,8
2018-04-27T03:50:21.784Z,12
2018-04-27T03:51:36.242Z,12
2018-04-27T03:52:50.717Z,16
2018-04-27T03:54:05.158Z,16
2018-04-27T03:55:18.953Z,20
2018-04-27T03:56:33.918Z,20
2018-04-27T03:57:48.604Z,24
2018-04-27T03:59:03.360Z,24
2018-04-27T04:00:17.809Z,28
2018-04-27T04:01:32.327Z,32
2018-04-27T04:02:47.291Z,40
2018-04-27T04:04:01.971Z,44
2018-04-27T04:05:16.731Z,48
2018-04-27T04:06:30.930Z,48
2018-04-27T04:07:45.927Z,56
2018-04-27T04:09:00.524Z,64
2018-04-27T04:10:14.994Z,76
2018-04-27T04:11:29.228Z,92
2018-04-27T04:12:43.181Z,104
2018-04-27T04:13:57.672Z,116
2018-04-27T04:15:11.895Z,132
2018-04-27T04:16:26.599Z,148
2018-04-27T04:17:41.073Z,156
2018-04-27T04:18:55.542Z,172
2018-04-27T04:20:09.735Z,188
2018-04-27T04:21:23.441Z,212
2018-04-27T04:22:37.920Z,236
2018-04-27T04:23:52.547Z,256
2018-04-27T04:25:07.021Z,284
2018-04-27T04:26:21.048Z,308
2018-04-27T04:27:35.503Z,340
2018-04-27T04:28:50.487Z,364
2018-04-27T04:30:04.816Z,392
2018-04-27T04:31:18.785Z,420
2018-04-27T04:32:33.203Z,428
2018-04-27T04:33:48.905Z,444
2018-04-27T04:35:03.780Z,472
2018-04-27T04:36:17.974Z,512
2018-04-27T04:37:32.659Z,572
2018-04-27T04:38:47.799Z,652
2018-04-27T04:40:02.519Z,720
2018-04-27T04:41:17.037Z,788
2018-04-27T04:42:31.269Z,856
2018-04-27T04:43:45.698Z,928
2018-04-27T04:44:59.929Z,1000
2018-04-27T04:46:15.632Z,1076
2018-04-27T04:47:30.396Z,1216
2018-04-27T04:48:44.401Z,1348
2018-04-27T04:49:58.401Z,1980
2018-04-27T04:51:12.938Z,2460
2018-04-27T04:52:27.448Z,2332
2018-04-27T04:53:41.673Z,1720
2018-04-27T04:54:55.901Z,1820
2018-04-27T04:56:10.434Z,1772
2018-04-27T04:57:25.152Z,2200
2018-04-27T04:58:39.372Z,3128
2018-04-27T04:59:54.344Z,3576
2018-04-27T05:01:08.848Z,3096
2018-04-27T05:02:24.124Z,3032
2018-04-27T05:03:38.134Z,2796
2018-04-27T05:04:52.376Z,2408
2018-04-27T05:06:06.345Z,2340
2018-04-27T05:07:21.389Z,2852
2018-04-27T05:08:35.869Z,2588
2018-04-27T05:09:50.770Z,2376
2018-04-27T05:11:04.699Z,2500
2018-04-27T05:12:18.975Z,2576
2018-04-27T05:13:33.971Z,2628
2018-04-27T05:14:48.640Z,2648
2018-04-27T05:16:09.456Z,2584
2018-04-27T05:17:23.996Z,2496
2018-04-27T05:18:38.481Z,2440
2018-04-27T05:19:52.638Z,2416
2018-04-27T05:21:07.101Z,2332
2018-04-27T05:22:21.682Z,2272
2018-04-27T05:23:35.916Z,2276
2018-04-27T05:24:50.383Z,2288
2018-04-27T05:26:04.592Z,2356
2018-04-27T05:27:19.373Z,2440
2018-04-27T05:28:33.802Z,2572
2018-04-27T05:29:49.161Z,2760
2018-04-27T05:31:03.717Z,2840
2018-04-27T05:32:17.537Z,2920
2018-04-27T05:33:31.755Z,3068
2018-04-27T05:34:46.285Z,3256
2018-04-27T05:36:00.526Z,3420
2018-04-27T05:37:14.749Z,3672
2018-04-27T05:38:29.440Z,4028
2018-04-27T05:39:43.140Z,4240
2018-04-27T05:40:57.508Z,4312
2018-04-27T05:42:12.198Z,4384
2018-04-27T05:43:26.226Z,4488
2018-04-27T05:44:41.213Z,4608
2018-04-27T05:45:55.652Z,4484
2018-04-27T05:47:10.366Z,4264
2018-04-27T05:48:25.139Z,4160
2018-04-27T05:49:39.557Z,4172
2018-04-27T05:50:54.560Z,3956
2018-04-27T05:52:08.527Z,3920
2018-04-27T05:53:22.833Z,3920
2018-04-27T05:54:37.412Z,3972
2018-04-27T05:55:51.636Z,4048
2018-04-27T05:57:06.144Z,4120
2018-04-27T05:58:20.443Z,4160
2018-04-27T05:59:34.864Z,4164
2018-04-27T06:00:49.615Z,4304
2018-04-27T06:02:03.854Z,4364
2018-04-27T06:03:17.609Z,4332
2018-04-27T06:04:32.362Z,4284
2018-04-27T06:05:47.189Z,4224
2018-04-27T06:07:01.409Z,4144
2018-04-27T06:08:16.353Z,4100
2018-04-27T06:09:31.470Z,4116
2018-04-27T06:10:45.472Z,4160
2018-04-27T06:11:59.904Z,4348
2018-04-27T06:13:14.641Z,4328
2018-04-27T06:14:29.031Z,4284
2018-04-27T06:15:43.549Z,4272
2018-04-27T06:16:58.002Z,4300
2018-04-27T06:18:12.729Z,4348
2018-04-27T06:19:27.719Z,4396
2018-04-27T06:20:42.173Z,4420
2018-04-27T06:21:56.151Z,4416
2018-04-27T06:23:10.877Z,4472
2018-04-27T06:24:25.437Z,4612
2018-04-27T06:25:40.459Z,4708
2018-04-27T06:26:55.306Z,4792
2018-04-27T06:28:09.802Z,4896
2018-04-27T06:29:24.918Z,5072
2018-04-27T06:30:39.130Z,5160
2018-04-27T06:31:53.377Z,5068
2018-04-27T06:33:07.308Z,4980
2018-04-27T06:34:21.526Z,4928
2018-04-27T06:35:36.024Z,4852
2018-04-27T06:36:50.515Z,4836
2018-04-27T06:38:05.226Z,4836
2018-04-27T06:39:19.547Z,4828
2018-04-27T06:40:34.469Z,4780
2018-04-27T06:41:48.668Z,4680
2018-04-27T06:43:03.460Z,4624
2018-04-27T06:44:17.652Z,4604
2018-04-27T06:45:32.699Z,4572
2018-04-27T06:46:47.140Z,4584
2018-04-27T06:48:02.067Z,4636
2018-04-27T06:49:16.807Z,4608
2018-04-27T06:50:31.389Z,4552
2018-04-27T06:51:46.073Z,4652
2018-04-27T06:53:01.086Z,4716
2018-04-27T06:54:15.596Z,4748
2018-04-27T06:55:30.685Z,4896
2018-04-27T06:56:44.614Z,5080
2018-04-27T06:57:59.366Z,5116
2018-04-27T06:59:14.034Z,5024
2018-04-27T07:00:28.473Z,4972
2018-04-27T07:01:42.495Z,5036
2018-04-27T07:02:56.702Z,4992
2018-04-27T07:04:10.965Z,4920
2018-04-27T07:05:26.061Z,4884
2018-04-27T07:06:40.354Z,4872
2018-04-27T07:07:54.581Z,4868
2018-04-27T07:09:08.793Z,4864
2018-04-27T07:10:29.383Z,4820
2018-04-27T07:11:44.264Z,4688
2018-04-27T07:12:59.069Z,4476
2018-04-27T07:14:13.517Z,4428
2018-04-27T07:15:27.991Z,4568
2018-04-27T07:16:43.366Z,4648
2018-04-27T07:17:58.234Z,4948
2018-04-27T07:19:12.728Z,5032
2018-04-27T07:20:27.168Z,5148
2018-04-27T07:21:41.424Z,5108
2018-04-27T07:22:55.919Z,4996
2018-04-27T07:24:10.319Z,4940
2018-04-27T07:25:24.807Z,4764
2018-04-27T07:26:39.326Z,4812
2018-04-27T07:27:53.837Z,4732
2018-04-27T07:29:08.347Z,4760
2018-04-27T07:30:22.647Z,4868
2018-04-27T07:31:37.020Z,5088
2018-04-27T07:32:51.532Z,5292
2018-04-27T07:34:05.866Z,5028
2018-04-27T07:35:20.408Z,4996
2018-04-27T07:36:35.315Z,4996
2018-04-27T07:37:50.183Z,4952
2018-04-27T07:39:04.436Z,4916
2018-04-27T07:40:19.221Z,4940
2018-04-27T07:41:33.837Z,4860
2018-04-27T07:42:48.573Z,4720
2018-04-27T07:44:03.313Z,4636
2018-04-27T07:45:18.004Z,4620
2018-04-27T07:46:33.178Z,4724
2018-04-27T07:47:47.922Z,4804
2018-04-27T07:49:02.424Z,4876
2018-04-27T07:50:15.898Z,4776
2018-04-27T07:51:30.457Z,4800
2018-04-27T07:52:45.517Z,4884
2018-04-27T07:54:00.072Z,4896
2018-04-27T07:55:14.569Z,4860
2018-04-27T07:56:28.859Z,4812
2018-04-27T07:57:43.313Z,4648
2018-04-27T07:58:57.289Z,4368
2018-04-27T08:00:11.544Z,4292
2018-04-27T08:01:25.812Z,4260
2018-04-27T08:02:40.404Z,4088
2018-04-27T08:03:55.114Z,3948
2018-04-27T08:05:09.356Z,3860
2018-04-27T08:06:23.812Z,3852
2018-04-27T08:07:38.455Z,3856
2018-04-27T08:08:53.253Z,3896
2018-04-27T08:10:08.153Z,3912
2018-04-27T08:11:23.224Z,3572
2018-04-27T08:12:36.935Z,3704
2018-04-27T08:13:51.463Z,3616
2018-04-27T08:15:05.922Z,3628
2018-04-27T08:16:19.881Z,3624
2018-04-27T08:17:34.045Z,3476
2018-04-27T08:18:48.505Z,3460
2018-04-27T08:20:03.007Z,3392
2018-04-27T08:21:17.770Z,3420
2018-04-27T08:22:32.705Z,3624
2018-04-27T08:23:47.206Z,3792
2018-04-27T08:25:01.673Z,3796
2018-04-27T08:26:15.873Z,3848
2018-04-27T08:27:30.111Z,3824
2018-04-27T08:28:44.139Z,3892
2018-04-27T08:29:58.950Z,3912
2018-04-27T08:31:12.920Z,3944
2018-04-27T08:32:27.409Z,3972
2018-04-27T08:33:41.688Z,3912
2018-04-27T08:34:56.153Z,3880
2018-04-27T08:36:11.042Z,3960
2018-04-27T08:37:25.348Z,3924
2018-04-27T08:38:39.635Z,3708
2018-04-27T08:39:54.073Z,3520
2018-04-27T08:41:08.899Z,3456
2018-04-27T08:42:23.127Z,3500
2018-04-27T08:43:37.761Z,3496
2018-04-27T08:44:52.257Z,3420
2018-04-27T08:46:06.739Z,3460
2018-04-27T08:47:21.198Z,3444
2018-04-27T08:48:35.941Z,3456
2018-04-27T08:49:50.280Z,3512
2018-04-27T08:51:04.881Z,3596
2018-04-27T08:52:19.354Z,3488
2018-04-27T08:53:34.125Z,3192
2018-04-27T08:54:48.372Z,3152
2018-04-27T08:56:02.429Z,3136
2018-04-27T08:57:16.399Z,3052
2018-04-27T08:58:30.644Z,3036
2018-04-27T08:59:45.176Z,3024
2018-04-27T09:00:59.945Z,2992
2018-04-27T09:02:13.683Z,2924
2018-04-27T09:03:28.469Z,2876
2018-04-27T09:04:42.567Z,2808
2018-04-27T09:05:57.030Z,2648
2018-04-27T09:07:11.792Z,2704
2018-04-27T09:08:26.747Z,2712
2018-04-27T09:09:41.165Z,2744
2018-04-27T09:10:55.147Z,2828
2018-04-27T09:12:09.301Z,2960
2018-04-27T09:13:24.277Z,2912
2018-04-27T09:14:39.098Z,2848
2018-04-27T09:15:53.887Z,2840
2018-04-27T09:17:07.910Z,2756
2018-04-27T09:18:22.448Z,2640
2018-04-27T09:19:36.789Z,2512
2018-04-27T09:20:51.607Z,2564
2018-04-27T09:22:06.341Z,2560
2018-04-27T09:23:20.061Z,2552
2018-04-27T09:24:34.801Z,2552
2018-04-27T09:25:49.077Z,2492
2018-04-27T09:27:03.481Z,2516
2018-04-27T09:28:18.270Z,2592
2018-04-27T09:29:33.501Z,2644
2018-04-27T09:30:48.100Z,2696
2018-04-27T09:32:02.609Z,2712
2018-04-27T09:33:17.115Z,2836
2018-04-27T09:34:31.918Z,2920
2018-04-27T09:35:46.790Z,2988
2018-04-27T09:37:01.814Z,2900
2018-04-27T09:38:15.940Z,2804
2018-04-27T09:39:30.132Z,2712
2018-04-27T09:40:44.138Z,2784
2018-04-27T09:41:58.893Z,2820
2018-04-27T09:43:13.145Z,2812
2018-04-27T09:44:27.362Z,2696
2018-04-27T09:45:42.481Z,2624
2018-04-27T09:46:56.648Z,2628
2018-04-27T09:48:11.359Z,2616
2018-04-27T09:49:26.107Z,2736
2018-04-27T09:50:40.829Z,2636
2018-04-27T09:51:55.689Z,2496
2018-04-27T09:53:09.411Z,2484
2018-04-27T09:54:24.688Z,2464
2018-04-27T09:55:38.691Z,2440
2018-04-27T09:56:53.397Z,2412
2018-04-27T09:58:08.264Z,2388
2018-04-27T09:59:21.723Z,2376
2018-04-27T10:00:35.685Z,2376
2018-04-27T10:01:50.231Z,2332
2018-04-27T10:03:05.239Z,2288
2018-04-27T10:04:20.170Z,2268
2018-04-27T10:05:34.444Z,2256
2018-04-27T10:06:49.315Z,2244
2018-04-27T10:08:04.113Z,2240
2018-04-27T10:09:18.677Z,2216
2018-04-27T10:10:33.392Z,2196
2018-04-27T10:11:47.828Z,2172
2018-04-27T10:13:02.948Z,2160
2018-04-27T10:14:17.190Z,2144
2018-04-27T10:15:31.668Z,2124
2018-04-27T10:16:45.909Z,2128
2018-04-27T10:18:06.997Z,2120
2018-04-27T10:19:21.819Z,2112
2018-04-27T10:20:36.947Z,2100
2018-04-27T10:21:52.235Z,2084
2018-04-27T10:23:05.979Z,2080
2018-04-27T10:24:20.211Z,2072
2018-04-27T10:25:34.713Z,2064
2018-04-27T10:26:49.586Z,2048
2018-04-27T10:28:03.536Z,2044
2018-04-27T10:29:18.049Z,2040
2018-04-27T10:30:31.804Z,2032
2018-04-27T10:31:45.775Z,2028
2018-04-27T10:33:00.072Z,2032
2018-04-27T10:34:14.701Z,2040
2018-04-27T10:35:29.174Z,2036
2018-04-27T10:36:44.137Z,2036
2018-04-27T10:37:58.406Z,2008
2018-04-27T10:39:12.860Z,2000
2018-04-27T10:40:26.831Z,2000
2018-04-27T10:41:41.595Z,2008
2018-04-27T10:42:55.960Z,2012
2018-04-27T10:44:13.695Z,1996
2018-04-27T10:45:27.929Z,1968
2018-04-27T10:46:42.183Z,1980
2018-04-27T10:47:56.819Z,1996
2018-04-27T10:49:11.072Z,2024
2018-04-27T10:50:25.495Z,1988
2018-04-27T10:51:40.285Z,1980
2018-04-27T10:52:54.567Z,1976
2018-04-27T10:54:09.318Z,1976
2018-04-27T10:55:23.567Z,1976
2018-04-27T10:56:38.151Z,1976
2018-04-27T10:57:52.151Z,1992
2018-04-27T10:59:06.990Z,1992
2018-04-27T11:00:21.240Z,2004
2018-04-27T11:01:35.734Z,2028
2018-04-27T11:02:49.496Z,2168
2018-04-27T11:04:03.999Z,2364
2018-04-27T11:05:18.240Z,2412
2018-04-27T11:06:32.470Z,2268
2018-04-27T11:07:46.986Z,2128
2018-04-27T11:09:01.441Z,2080
2018-04-27T11:10:15.935Z,1764
2018-04-27T11:11:30.795Z,2072
2018-04-27T11:12:45.311Z,2084
2018-04-27T11:13:59.823Z,2072
2018-04-27T11:15:14.063Z,2044
2018-04-27T11:16:28.570Z,2012
2018-04-27T11:17:43.253Z,2008
2018-04-27T11:18:58.202Z,2016
2018-04-27T11:20:12.295Z,2008
2018-04-27T11:21:27.806Z,2008
2018-04-27T11:22:42.101Z,2012
2018-04-27T11:23:56.790Z,2016
2018-04-27T11:25:11.043Z,2016
2018-04-27T11:26:25.565Z,2024
2018-04-27T11:27:40.609Z,2032
2018-04-27T11:28:55.570Z,2060
2018-04-27T11:30:09.352Z,2092
2018-04-27T11:31:24.071Z,2128
2018-04-27T11:32:38.340Z,2032
2018-04-27T11:33:53.502Z,1944
2018-04-27T11:35:08.045Z,2236
2018-04-27T11:36:22.875Z,2568
2018-04-27T11:37:37.656Z,2584
2018-04-27T11:38:51.739Z,2560
2018-04-27T11:40:05.475Z,2444
2018-04-27T11:41:19.971Z,2404
2018-04-27T11:42:34.497Z,2324
2018-04-27T11:43:49.517Z,2304
2018-04-27T11:45:04.197Z,2292
2018-04-27T11:46:19.188Z,2352
2018-04-27T11:47:33.143Z,2408
2018-04-27T11:48:47.630Z,2388
2018-04-27T11:50:01.649Z,2360
2018-04-27T11:51:15.652Z,2372
2018-04-27T11:52:29.832Z,2344
2018-04-27T11:53:44.315Z,2328
2018-04-27T11:54:58.626Z,2344
2018-04-27T11:56:12.925Z,2364
2018-04-27T11:57:26.637Z,2388
2018-04-27T11:58:41.482Z,2420
2018-04-27T11:59:56.010Z,2412
2018-04-27T12:01:10.491Z,2424
2018-04-27T12:02:25.210Z,2464
2018-04-27T12:03:39.561Z,2424
2018-04-27T12:04:53.997Z,2468
2018-04-27T12:06:08.532Z,2584
2018-04-27T12:07:23.518Z,2664
2018-04-27T12:08:38.026Z,2744
2018-04-27T12:09:52.028Z,2776
2018-04-27T12:11:06.857Z,2744
2018-04-27T12:12:21.386Z,2720
2018-04-27T12:13:35.409Z,2368
2018-04-27T12:14:56.202Z,2580
2018-04-27T12:16:10.673Z,2716
2018-04-27T12:17:24.912Z,2856
2018-04-27T12:18:39.973Z,2972
2018-04-27T12:19:54.547Z,3260
2018-04-27T12:21:09.016Z,3172
2018-04-27T12:22:29.548Z,3032
2018-04-27T12:23:44.600Z,3024
2018-04-27T12:24:59.219Z,3304
2018-04-27T12:26:13.472Z,3596
2018-04-27T12:27:27.959Z,3956
2018-04-27T12:28:42.233Z,4248
2018-04-27T12:29:57.075Z,4124
2018-04-27T12:31:11.836Z,3892
2018-04-27T12:32:26.325Z,3976
2018-04-27T12:33:41.066Z,3952
2018-04-27T12:34:55.068Z,4236
2018-04-27T12:36:09.917Z,4620
2018-04-27T12:37:25.013Z,4436
2018-04-27T12:38:39.743Z,4196
2018-04-27T12:39:54.587Z,3848
2018-04-27T12:41:09.168Z,3440
2018-04-27T12:42:23.698Z,2972
2018-04-27T12:43:37.951Z,2852
2018-04-27T12:44:52.711Z,2748
2018-04-27T12:46:07.389Z,2876
2018-04-27T12:47:21.897Z,3132
2018-04-27T12:48:36.664Z,3308
2018-04-27T12:49:51.434Z,3896
2018-04-27T12:51:05.776Z,4356
2018-04-27T12:52:20.798Z,4516
2018-04-27T12:53:35.590Z,4656
2018-04-27T12:54:50.422Z,5144
2018-04-27T12:56:04.489Z,4952
2018-04-27T12:57:18.997Z,4548
2018-04-27T12:58:33.768Z,4060
2018-04-27T12:59:48.522Z,3536
2018-04-27T13:01:03.463Z,3192
2018-04-27T13:02:18.009Z,3084
2018-04-27T13:03:32.547Z,2916
2018-04-27T13:04:46.825Z,2800
2018-04-27T13:06:01.636Z,2716
2018-04-27T13:07:17.524Z,2744
2018-04-27T13:08:33.257Z,2868
2018-04-27T13:09:47.754Z,2916
2018-04-27T13:11:02.948Z,2920
2018-04-27T13:12:17.218Z,2908
2018-04-27T13:13:32.057Z,2872
2018-04-27T13:14:48.038Z,2832
2018-04-27T13:16:02.626Z,2860
2018-04-27T13:17:17.159Z,2808
2018-04-27T13:18:31.144Z,2740
2018-04-27T13:19:45.738Z,2680
2018-04-27T13:21:01.372Z,2628
2018-04-27T13:22:15.897Z,2576
2018-04-27T13:23:30.367Z,2508
2018-04-27T13:24:46.075Z,2428
2018-04-27T13:26:20.310Z,2376
2018-04-27T13:27:38.706Z,2348
2018-04-27T13:28:53.244Z,2348
2018-04-27T13:30:08.034Z,2324
2018-04-27T13:31:29.973Z,2284
2018-04-27T13:32:44.979Z,2360
2018-04-27T13:34:00.657Z,2480
2018-04-27T13:35:15.746Z,2632
2018-04-27T13:36:30.081Z,2912
2018-04-27T13:37:44.361Z,3156
2018-04-27T13:38:59.123Z,3080
2018-04-27T13:40:14.124Z,3100
2018-04-27T13:41:28.975Z,3080
2018-04-27T13:42:42.747Z,2944
2018-04-27T13:43:57.866Z,2800
2018-04-27T13:45:12.356Z,2708
2018-04-27T13:46:27.151Z,2608
2018-04-27T13:47:42.641Z,2564
2018-04-27T13:48:57.215Z,2596
2018-04-27T13:50:11.627Z,2688
2018-04-27T13:51:26.951Z,2764
2018-04-27T13:52:41.634Z,2716
2018-04-27T13:53:56.126Z,2640
2018-04-27T13:55:10.898Z,2588
2018-04-27T13:56:26.069Z,2588
2018-04-27T13:57:40.003Z,2600
2018-04-27T13:58:54.811Z,2660
2018-04-27T14:00:09.110Z,2764
2018-04-27T14:01:23.835Z,2840
2018-04-27T14:02:38.221Z,2908
2018-04-27T14:03:53.018Z,2968
2018-04-27T14:05:08.002Z,2936
2018-04-27T14:06:22.998Z,2848
2018-04-27T14:07:37.754Z,2760
2018-04-27T14:08:52.301Z,2716
2018-04-27T14:10:06.329Z,2708
2018-04-27T14:11:20.968Z,2684
2018-04-27T14:12:36.770Z,2724
2018-04-27T14:13:51.506Z,2736
2018-04-27T14:15:06.128Z,2784
2018-04-27T14:16:20.474Z,2824
2018-04-27T14:17:35.050Z,2840
2018-04-27T14:18:50.883Z,2812
2018-04-27T14:20:05.739Z,2776
2018-04-27T14:21:20.782Z,2728
2018-04-27T14:22:35.349Z,2704
2018-04-27T14:23:50.108Z,2656
2018-04-27T14:25:04.372Z,2620
2018-04-27T14:26:19.496Z,2564
2018-04-27T14:27:34.059Z,2512
2018-04-27T14:28:48.579Z,2484
2018-04-27T14:30:03.303Z,2480
2018-04-27T14:31:17.568Z,2468
2018-04-27T14:32:32.664Z,2492
2018-04-27T14:33:46.722Z,2496
2018-04-27T14:35:01.793Z,2404
2018-04-27T14:36:16.581Z,2456
2018-04-27T14:37:31.184Z,2480
2018-04-27T14:38:46.186Z,2428
2018-04-27T14:40:00.732Z,2396
2018-04-27T14:41:15.668Z,2392
2018-04-27T14:42:30.623Z,2516
2018-04-27T14:43:45.191Z,2484
2018-04-27T14:44:59.758Z,2544
2018-04-27T14:46:14.684Z,2528
2018-04-27T14:47:29.242Z,2660
2018-04-27T14:48:43.877Z,2696
2018-04-27T14:49:58.718Z,2792
2018-04-27T14:51:13.247Z,2788
2018-04-27T14:52:27.746Z,2900
2018-04-27T14:53:41.418Z,2880
2018-04-27T14:54:56.036Z,2864
2018-04-27T14:56:10.905Z,2824
2018-04-27T14:57:25.186Z,2748
2018-04-27T14:58:40.934Z,2720
2018-04-27T14:59:55.832Z,2748
2018-04-27T15:01:09.952Z,2784
2018-04-27T15:02:30.511Z,2764
2018-04-27T15:03:45.772Z,2680
2018-04-27T15:05:00.415Z,2736
2018-04-27T15:06:15.034Z,2704
2018-04-27T15:07:30.320Z,2784
2018-04-27T15:08:45.578Z,2880
2018-04-27T15:10:00.409Z,2880
2018-04-27T15:11:14.952Z,2812
2018-04-27T15:12:28.531Z,2776
2018-04-27T15:13:43.103Z,2828
2018-04-27T15:14:57.622Z,2736
2018-04-27T15:16:12.571Z,2700
2018-04-27T15:17:27.526Z,2648
2018-04-27T15:18:42.255Z,2584
2018-04-27T15:19:56.574Z,2608
2018-04-27T15:21:11.359Z,2556
2018-04-27T15:22:25.945Z,2548
2018-04-27T15:23:42.344Z,2576
2018-04-27T15:24:58.421Z,2736
2018-04-27T15:26:12.202Z,2964
2018-04-27T15:27:26.984Z,2848
2018-04-27T15:28:41.207Z,2756
2018-04-27T15:29:56.543Z,2752
2018-04-27T15:31:10.533Z,2732
2018-04-27T15:32:25.329Z,2720
2018-04-27T15:33:39.768Z,2652
2018-04-27T15:34:54.358Z,2496
2018-04-27T15:36:08.740Z,2372
2018-04-27T15:37:23.062Z,2228
2018-04-27T15:38:37.602Z,2132
2018-04-27T15:39:52.623Z,2056
2018-04-27T15:41:07.470Z,1972
2018-04-27T15:42:21.468Z,1928
2018-04-27T15:43:36.739Z,1860
2018-04-27T15:44:51.146Z,1888
2018-04-27T15:46:05.986Z,2096
2018-04-27T15:47:21.033Z,2204
2018-04-27T15:48:36.292Z,2384
2018-04-27T15:49:50.476Z,2504
2018-04-27T15:51:05.241Z,2636
2018-04-27T15:52:19.943Z,2768
2018-04-27T15:53:34.654Z,2888
2018-04-27T15:54:50.912Z,2896
2018-04-27T15:56:06.819Z,2764
2018-04-27T15:57:22.472Z,2656
2018-04-27T15:58:37.196Z,2336
2018-04-27T15:59:51.553Z,2040
2018-04-27T16:01:06.209Z,1852
2018-04-27T16:04:00.902Z,1716
2018-04-27T16:05:15.614Z,1804
2018-04-27T16:06:29.888Z,1808
2018-04-27T16:07:44.356Z,1848
2018-04-27T16:08:59.134Z,1864
2018-04-27T16:10:13.781Z,1932
2018-04-27T16:11:28.663Z,2096
2018-04-27T16:12:43.251Z,2360
2018-04-27T16:13:57.983Z,2448
2018-04-27T16:15:25.091Z,2620
2018-04-27T16:16:39.106Z,2608
2018-04-27T16:17:53.977Z,2580
2018-04-27T16:19:08.488Z,2556
2018-04-27T16:20:24.052Z,2376
2018-04-27T16:21:38.164Z,2336
2018-04-27T16:22:52.724Z,2328
2018-04-27T16:24:07.131Z,2284
2018-04-27T16:25:22.182Z,2276
2018-04-27T16:26:37.074Z,2300
2018-04-27T16:27:51.766Z,2196
2018-04-27T16:29:06.423Z,1992
2018-04-27T16:30:20.829Z,1800
2018-04-27T16:31:35.430Z,1728
2018-04-27T16:32:49.675Z,1748
2018-04-27T16:34:04.189Z,1828
2018-04-27T16:35:18.653Z,1864
2018-04-27T16:36:33.154Z,1924
2018-04-27T16:37:48.537Z,1908
2018-04-27T16:39:03.084Z,1784
2018-04-27T16:40:17.962Z,1556
2018-04-27T16:41:35.204Z,1496
2018-04-27T16:42:50.202Z,1444
2018-04-27T16:44:06.087Z,1416
2018-04-27T16:45:20.838Z,1376
2018-04-27T16:46:35.498Z,1388
2018-04-27T16:47:49.525Z,1492
2018-04-27T16:49:03.882Z,1544
2018-04-27T16:50:19.073Z,1604
2018-04-27T16:51:33.502Z,1632
2018-04-27T16:52:47.777Z,1688
2018-04-27T16:54:02.556Z,1732
2018-04-27T16:55:17.556Z,1864
2018-04-27T16:56:31.887Z,2008
2018-04-27T16:57:46.132Z,2152
2018-04-27T16:59:00.885Z,2216
2018-04-27T17:00:15.174Z,2228
2018-04-27T17:01:28.833Z,2264
2018-04-27T17:02:43.413Z,2280
2018-04-27T17:03:58.129Z,2244
2018-04-27T17:05:12.345Z,2232